sensor_id;sensor_type;location;lat;lon;timestamp;pressure;altitude;pressure_sealevel;temperature;humidity
40013;BME280;37387;42.672;23.334;2022-07-29T00:09:33;946.2;;;19.2;100.0
40013;BME280;37387;42.672;23.334;2022-07-29T00:12:33;946.3;;;19.3;100.0
40013;BME280;37387;42.672;23.334;2022-07-29T00:16:33;946.3;;;19.4;100.0
40013;BME280;37387;42.672;23.334;2022-07-29T00:19:33;946.3;;;19.3;100.0
40013;BME280;37387;42.672;23.334;2022-07-29T00:25:33;946.3;;;19.2;100.0
40013;BME280;37387;42.672;23.334;2022-07-29T00:26:33;946.3;;;19.1;100.0
40013;BME280;37387;42.672;23.334;2022-07-29T00:31:33;946.2;;;19.0;100.0
40013;BME280;37387;42.672;23.334;2022-07-29T00:39:33;946.2;;;19.1;100.0
40013;BME280;37387;42.672;23.334;2022-07-29T00:43:33;946.2;;;19.2;100.0
40013;BME280;37387;42.672;23.334;2022-07-29T00:44:36;946.2;;;19.1;100.0
40013;BME280;37387;42.672;23.334;2022-07-29T00:46:33;946.2;;;19.3;100.0
40013;BME280;37387;42.672;23.334;2022-07-29T00:47:33;946.3;;;19.4;100.0
40013;BME280;37387;42.672;23.334;2022-07-29T00:49:33;946.3;;;19.5;100.0
40013;BME280;37387;42.672;23.334;2022-07-29T00:51:34;946.4;;;19.4;100.0
40013;BME280;37387;42.672;23.334;2022-07-29T00:55:34;946.4;;;19.5;100.0
40013;BME280;37387;42.672;23.334;2022-07-29T00:56:33;946.4;;;19.6;100.0
40013;BME280;37387;42.672;23.334;2022-07-29T00:57:34;946.4;;;19.5;100.0
40013;BME280;37387;42.672;23.334;2022-07-29T00:58:33;946.3;;;19.6;100.0
40013;BME280;37387;42.672;23.334;2022-07-29T01:04:33;946.3;;;19.7;100.0
40013;BME280;37387;42.672;23.334;2022-07-29T01:05:34;946.3;;;19.6;100.0
40013;BME280;37387;42.672;23.334;2022-07-29T01:06:33;946.3;;;19.5;100.0
40013;BME280;37387;42.672;23.334;2022-07-29T01:08:33;946.3;;;19.4;100.0
40013;BME280;37387;42.672;23.334;2022-07-29T01:10:33;946.3;;;19.3;100.0
40013;BME280;37387;42.672;23.334;2022-07-29T01:11:33;946.3;;;19.2;100.0
40013;BME280;37387;42.672;23.334;2022-07-29T01:12:33;946.2;;;19.1;100.0
40013;BME280;37387;42.672;23.334;2022-07-29T01:14:33;946.2;;;19.0;100.0
40013;BME280;37387;42.672;23.334;2022-07-29T01:15:33;946.2;;;19.1;100.0
40013;BME280;37387;42.672;23.334;2022-07-29T01:23:40;946.2;;;19.0;100.0
40013;BME280;37387;42.672;23.334;2022-07-29T01:26:37;946.1;;;19.0;100.0
40013;BME280;37387;42.672;23.334;2022-07-29T01:29:34;946.1;;;18.9;100.0
40013;BME280;37387;42.672;23.334;2022-07-29T01:32:35;946.1;;;18.8;100.0
40013;BME280;37387;42.672;23.334;2022-07-29T01:34:35;946.1;;;18.5;100.0
40013;BME280;37387;42.672;23.334;2022-07-29T01:35:35;946.1;;;18.4;100.0
40013;BME280;37387;42.672;23.334;2022-07-29T01:36:35;946.1;;;18.3;100.0
40013;BME280;37387;42.672;23.334;2022-07-29T01:37:36;946.0;;;18.2;100.0
40013;BME280;37387;42.672;23.334;2022-07-29T01:38:33;946.0;;;18.1;100.0
40013;BME280;37387;42.672;23.334;2022-07-29T01:40:34;946.0;;;18.0;100.0
40013;BME280;37387;42.672;23.334;2022-07-29T01:47:35;946.1;;;18.1;100.0
40013;BME280;37387;42.672;23.334;2022-07-29T01:55:34;946.1;;;18.2;100.0
40013;BME280;37387;42.672;23.334;2022-07-29T02:02:33;946.0;;;18.1;100.0
40013;BME280;37387;42.672;23.334;2022-07-29T02:04:33;946.0;;;18.0;100.0
40013;BME280;37387;42.672;23.334;2022-07-29T02:05:33;946.0;;;17.9;100.0
40013;BME280;37387;42.672;23.334;2022-07-29T02:08:33;946.0;;;18.0;100.0
40013;BME280;37387;42.672;23.334;2022-07-29T02:09:34;946.0;;;17.9;100.0
40013;BME280;37387;42.672;23.334;2022-07-29T02:10:33;946.0;;;18.0;100.0
40013;BME280;37387;42.672;23.334;2022-07-29T02:11:33;946.0;;;17.9;100.0
40013;BME280;37387;42.672;23.334;2022-07-29T02:12:33;945.9;;;18.0;100.0
40013;BME280;37387;42.672;23.334;2022-07-29T02:13:34;945.9;;;18.1;100.0
40013;BME280;37387;42.672;23.334;2022-07-29T02:19:33;945.9;;;18.2;100.0
40013;BME280;37387;42.672;23.334;2022-07-29T02:20:34;945.9;;;18.3;100.0
40013;BME280;37387;42.672;23.334;2022-07-29T02:22:33;945.9;;;18.4;100.0
40013;BME280;37387;42.672;23.334;2022-07-29T02:23:34;945.9;;;18.5;100.0
40013;BME280;37387;42.672;23.334;2022-07-29T02:25:33;946.0;;;18.4;100.0
40013;BME280;37387;42.672;23.334;2022-07-29T02:27:34;946.0;;;18.3;100.0
40013;BME280;37387;42.672;23.334;2022-07-29T02:28:33;946.0;;;18.2;100.0
40013;BME280;37387;42.672;23.334;2022-07-29T02:29:33;945.9;;;18.0;100.0
40013;BME280;37387;42.672;23.334;2022-07-29T02:32:34;945.9;;;17.9;100.0
40013;BME280;37387;42.672;23.334;2022-07-29T02:35:33;945.9;;;17.8;100.0
40013;BME280;37387;42.672;23.334;2022-07-29T02:36:33;945.9;;;17.7;100.0
40013;BME280;37387;42.672;23.334;2022-07-29T02:38:33;945.9;;;17.8;100.0
40013;BME280;37387;42.672;23.334;2022-07-29T02:44:33;945.8;;;17.9;100.0
40013;BME280;37387;42.672;23.334;2022-07-29T02:46:34;945.7;;;18.0;100.0
40013;BME280;37387;42.672;23.334;2022-07-29T02:56:33;945.8;;;18.1;100.0
40013;BME280;37387;42.672;23.334;2022-07-29T03:06:33;945.7;;;18.0;100.0
40013;BME280;37387;42.672;23.334;2022-07-29T03:12:33;945.7;;;18.1;100.0
40013;BME280;37387;42.672;23.334;2022-07-29T03:13:34;945.7;;;18.0;100.0
40013;BME280;37387;42.672;23.334;2022-07-29T03:14:33;945.7;;;18.1;100.0
40013;BME280;37387;42.672;23.334;2022-07-29T03:18:33;945.7;;;18.0;100.0
40013;BME280;37387;42.672;23.334;2022-07-29T03:22:34;945.7;;;18.1;100.0
40013;BME280;37387;42.672;23.334;2022-07-29T03:23:33;945.7;;;18.0;100.0
40013;BME280;37387;42.672;23.334;2022-07-29T03:31:33;945.8;;;18.1;100.0
40013;BME280;37387;42.672;23.334;2022-07-29T03:37:33;945.8;;;18.0;100.0
40013;BME280;37387;42.672;23.334;2022-07-29T03:41:33;945.8;;;18.1;100.0
40013;BME280;37387;42.672;23.334;2022-07-29T03:42:34;945.9;;;18.0;100.0
40013;BME280;37387;42.672;23.334;2022-07-29T03:43:34;945.9;;;18.2;100.0
40013;BME280;37387;42.672;23.334;2022-07-29T03:48:34;945.9;;;18.3;100.0
40013;BME280;37387;42.672;23.334;2022-07-29T03:49:33;945.9;;;18.2;100.0
40013;BME280;37387;42.672;23.334;2022-07-29T03:50:33;945.9;;;18.3;100.0
40013;BME280;37387;42.672;23.334;2022-07-29T03:52:33;945.9;;;18.4;100.0
40013;BME280;37387;42.672;23.334;2022-07-29T03:53:33;945.9;;;18.3;100.0
40013;BME280;37387;42.672;23.334;2022-07-29T03:55:40;945.9;;;18.4;100.0
40013;BME280;37387;42.672;23.334;2022-07-29T03:56:34;946.0;;;18.5;100.0
40013;BME280;37387;42.672;23.334;2022-07-29T04:01:34;946.0;;;18.6;100.0
40013;BME280;37387;42.672;23.334;2022-07-29T04:02:33;946.0;;;18.7;100.0
40013;BME280;37387;42.672;23.334;2022-07-29T04:03:33;946.0;;;19.0;100.0
40013;BME280;37387;42.672;23.334;2022-07-29T04:04:33;946.0;;;19.4;100.0
40013;BME280;37387;42.672;23.334;2022-07-29T04:05:33;946.1;;;20.0;100.0
40013;BME280;37387;42.672;23.334;2022-07-29T04:06:37;946.0;;;20.5;100.0
40013;BME280;37387;42.672;23.334;2022-07-29T04:07:33;946.1;;;21.2;99.5
40013;BME280;37387;42.672;23.334;2022-07-29T04:08:33;946.1;;;21.7;94.7
40013;BME280;37387;42.672;23.334;2022-07-29T04:09:33;946.1;;;22.3;85.2
40013;BME280;37387;42.672;23.334;2022-07-29T04:10:33;946.1;;;22.4;85.2
40013;BME280;37387;42.672;23.334;2022-07-29T04:11:33;946.1;;;22.3;83.4
40013;BME280;37387;42.672;23.334;2022-07-29T04:13:33;946.1;;;23.0;83.0
40013;BME280;37387;42.672;23.334;2022-07-29T04:14:34;946.0;;;23.8;77.6
40013;BME280;37387;42.672;23.334;2022-07-29T04:15:33;946.0;;;24.2;77.6
40013;BME280;37387;42.672;23.334;2022-07-29T04:16:33;946.1;;;24.5;73.5
40013;BME280;37387;42.672;23.334;2022-07-29T04:17:34;946.0;;;25.3;71.1
40013;BME280;37387;42.672;23.334;2022-07-29T04:18:33;946.1;;;25.9;66.5
40013;BME280;37387;42.672;23.334;2022-07-29T04:19:33;946.1;;;25.5;66.5
40013;BME280;37387;42.672;23.334;2022-07-29T04:20:33;946.1;;;25.7;66.1
40013;BME280;37387;42.672;23.334;2022-07-29T04:21:36;946.1;;;26.4;63.3
40013;BME280;37387;42.672;23.334;2022-07-29T04:22:33;946.1;;;26.6;63.3
40013;BME280;37387;42.672;23.334;2022-07-29T04:23:33;946.1;;;26.9;61.5
40013;BME280;37387;42.672;23.334;2022-07-29T04:24:34;946.1;;;27.4;59.1
40013;BME280;37387;42.672;23.334;2022-07-29T04:25:36;946.1;;;27.8;59.1
40013;BME280;37387;42.672;23.334;2022-07-29T04:26:34;946.1;;;27.9;57.9
40013;BME280;37387;42.672;23.334;2022-07-29T04:27:33;946.0;;;27.7;56.4
40013;BME280;37387;42.672;23.334;2022-07-29T04:28:33;946.0;;;25.2;57.0
40013;BME280;37387;42.672;23.334;2022-07-29T04:29:33;946.0;;;25.3;64.4
40013;BME280;37387;42.672;23.334;2022-07-29T04:30:34;945.9;;;24.9;67.3
40013;BME280;37387;42.672;23.334;2022-07-29T04:31:33;945.9;;;25.6;67.3
40013;BME280;37387;42.672;23.334;2022-07-29T04:32:34;946.0;;;25.1;67.1
40013;BME280;37387;42.672;23.334;2022-07-29T04:33:33;946.0;;;24.9;69.3
40013;BME280;37387;42.672;23.334;2022-07-29T04:34:33;946.0;;;25.0;69.3
40013;BME280;37387;42.672;23.334;2022-07-29T04:35:34;946.0;;;26.0;67.3
40013;BME280;37387;42.672;23.334;2022-07-29T04:36:33;946.1;;;26.1;62.8
40013;BME280;37387;42.672;23.334;2022-07-29T04:37:33;946.2;;;27.1;62.8
40013;BME280;37387;42.672;23.334;2022-07-29T04:38:33;946.2;;;27.7;60.6
40013;BME280;37387;42.672;23.334;2022-07-29T04:39:33;946.2;;;28.4;57.8
40013;BME280;37387;42.672;23.334;2022-07-29T04:40:33;946.2;;;25.8;55.7
40013;BME280;37387;42.672;23.334;2022-07-29T04:41:33;946.2;;;26.6;62.6
40013;BME280;37387;42.672;23.334;2022-07-29T04:42:33;946.2;;;27.6;61.3
40013;BME280;37387;42.672;23.334;2022-07-29T04:43:33;946.3;;;28.6;58.6
40013;BME280;37387;42.672;23.334;2022-07-29T04:44:33;946.3;;;28.9;55.3
40013;BME280;37387;42.672;23.334;2022-07-29T04:45:33;946.4;;;29.2;52.2
40013;BME280;37387;42.672;23.334;2022-07-29T04:46:33;946.4;;;29.1;52.2
40013;BME280;37387;42.672;23.334;2022-07-29T04:47:33;946.4;;;29.2;52.2
40013;BME280;37387;42.672;23.334;2022-07-29T04:48:33;946.3;;;29.1;52.2
40013;BME280;37387;42.672;23.334;2022-07-29T04:49:33;946.3;;;29.3;52.2
40013;BME280;37387;42.672;23.334;2022-07-29T04:50:33;946.3;;;28.4;51.8
40013;BME280;37387;42.672;23.334;2022-07-29T04:51:33;946.3;;;29.1;51.7
40013;BME280;37387;42.672;23.334;2022-07-29T04:52:33;946.3;;;29.0;51.7
40013;BME280;37387;42.672;23.334;2022-07-29T04:53:33;946.4;;;30.1;49.5
40013;BME280;37387;42.672;23.334;2022-07-29T04:54:33;946.4;;;31.2;49.5
40013;BME280;37387;42.672;23.334;2022-07-29T04:55:33;946.4;;;30.6;46.9
40013;BME280;37387;42.672;23.334;2022-07-29T04:56:33;946.5;;;31.4;47.3
40013;BME280;37387;42.672;23.334;2022-07-29T04:57:33;946.4;;;31.8;46.3
40013;BME280;37387;42.672;23.334;2022-07-29T04:58:33;946.4;;;31.7;44.9
40013;BME280;37387;42.672;23.334;2022-07-29T04:59:33;946.5;;;32.0;44.9
40013;BME280;37387;42.672;23.334;2022-07-29T05:00:33;946.5;;;32.2;44.5
40013;BME280;37387;42.672;23.334;2022-07-29T05:01:33;946.5;;;30.9;43.5
40013;BME280;37387;42.672;23.334;2022-07-29T05:02:33;946.4;;;30.3;46.7
40013;BME280;37387;42.672;23.334;2022-07-29T05:03:33;946.4;;;30.0;47.6
40013;BME280;37387;42.672;23.334;2022-07-29T05:04:33;946.4;;;29.4;47.7
40013;BME280;37387;42.672;23.334;2022-07-29T05:05:33;946.3;;;30.5;50.2
40013;BME280;37387;42.672;23.334;2022-07-29T05:06:33;946.4;;;31.1;46.5
40013;BME280;37387;42.672;23.334;2022-07-29T05:07:33;946.5;;;31.4;45.5
40013;BME280;37387;42.672;23.334;2022-07-29T05:08:33;946.5;;;30.8;45.5
40013;BME280;37387;42.672;23.334;2022-07-29T05:09:33;946.4;;;28.2;46.0
40013;BME280;37387;42.672;23.334;2022-07-29T05:10:33;946.3;;;28.8;52.1
40013;BME280;37387;42.672;23.334;2022-07-29T05:11:33;946.4;;;30.0;49.1
40013;BME280;37387;42.672;23.334;2022-07-29T05:12:33;946.4;;;30.5;48.3
40013;BME280;37387;42.672;23.334;2022-07-29T05:13:33;946.4;;;30.4;48.3
40013;BME280;37387;42.672;23.334;2022-07-29T05:14:33;946.4;;;31.2;47.5
40013;BME280;37387;42.672;23.334;2022-07-29T05:15:33;946.4;;;31.0;46.2
40013;BME280;37387;42.672;23.334;2022-07-29T05:16:33;946.5;;;30.5;47.9
40013;BME280;37387;42.672;23.334;2022-07-29T05:17:33;946.5;;;31.4;47.9
40013;BME280;37387;42.672;23.334;2022-07-29T05:18:33;946.4;;;29.5;46.1
40013;BME280;37387;42.672;23.334;2022-07-29T05:19:33;946.4;;;29.2;48.5
40013;BME280;37387;42.672;23.334;2022-07-29T05:21:33;946.4;;;28.7;51.7
40013;BME280;37387;42.672;23.334;2022-07-29T05:22:33;946.4;;;28.2;51.7
40013;BME280;37387;42.672;23.334;2022-07-29T05:23:33;946.4;;;27.7;52.3
40013;BME280;37387;42.672;23.334;2022-07-29T05:24:33;946.4;;;26.7;54.0
40013;BME280;37387;42.672;23.334;2022-07-29T05:25:33;946.4;;;28.5;57.5
40013;BME280;37387;42.672;23.334;2022-07-29T05:26:33;946.4;;;29.6;53.6
40013;BME280;37387;42.672;23.334;2022-07-29T05:27:33;946.4;;;28.4;50.1
40013;BME280;37387;42.672;23.334;2022-07-29T05:28:33;946.4;;;27.9;52.4
40013;BME280;37387;42.672;23.334;2022-07-29T05:29:33;946.4;;;28.5;54.4
40013;BME280;37387;42.672;23.334;2022-07-29T05:31:33;946.3;;;27.5;55.2
40013;BME280;37387;42.672;23.334;2022-07-29T05:32:33;946.3;;;28.5;55.2
40013;BME280;37387;42.672;23.334;2022-07-29T05:33:33;946.4;;;29.4;50.8
40013;BME280;37387;42.672;23.334;2022-07-29T05:34:33;946.4;;;29.5;50.8
40013;BME280;37387;42.672;23.334;2022-07-29T05:35:34;946.4;;;29.1;50.3
40013;BME280;37387;42.672;23.334;2022-07-29T05:36:33;946.4;;;29.5;50.1
40013;BME280;37387;42.672;23.334;2022-07-29T05:37:33;946.4;;;29.9;50.1
40013;BME280;37387;42.672;23.334;2022-07-29T05:38:34;946.4;;;30.2;49.0
40013;BME280;37387;42.672;23.334;2022-07-29T05:39:33;946.3;;;29.3;48.6
40013;BME280;37387;42.672;23.334;2022-07-29T05:40:33;946.3;;;29.9;48.8
40013;BME280;37387;42.672;23.334;2022-07-29T05:41:33;946.3;;;29.7;49.0
40013;BME280;37387;42.672;23.334;2022-07-29T05:42:33;946.4;;;30.1;48.6
40013;BME280;37387;42.672;23.334;2022-07-29T05:43:33;946.4;;;30.8;46.3
40013;BME280;37387;42.672;23.334;2022-07-29T05:44:35;946.5;;;31.1;46.6
40013;BME280;37387;42.672;23.334;2022-07-29T05:45:33;946.5;;;31.6;46.6
40013;BME280;37387;42.672;23.334;2022-07-29T05:46:33;946.5;;;32.4;45.3
40013;BME280;37387;42.672;23.334;2022-07-29T05:47:34;946.5;;;31.7;43.4
40013;BME280;37387;42.672;23.334;2022-07-29T05:48:33;946.5;;;31.5;44.1
40013;BME280;37387;42.672;23.334;2022-07-29T05:49:33;946.5;;;31.8;44.1
40013;BME280;37387;42.672;23.334;2022-07-29T05:50:33;946.5;;;31.7;43.3
40013;BME280;37387;42.672;23.334;2022-07-29T05:51:34;946.5;;;31.4;43.2
40013;BME280;37387;42.672;23.334;2022-07-29T05:53:33;946.5;;;30.8;44.1
40013;BME280;37387;42.672;23.334;2022-07-29T05:54:34;946.5;;;30.6;45.9
40013;BME280;37387;42.672;23.334;2022-07-29T05:55:33;946.5;;;31.0;45.7
40013;BME280;37387;42.672;23.334;2022-07-29T05:56:35;946.5;;;30.8;45.7
40013;BME280;37387;42.672;23.334;2022-07-29T05:57:33;946.5;;;31.2;45.5
40013;BME280;37387;42.672;23.334;2022-07-29T05:58:33;946.5;;;29.5;44.7
40013;BME280;37387;42.672;23.334;2022-07-29T05:59:35;946.4;;;29.3;47.0
40013;BME280;37387;42.672;23.334;2022-07-29T06:00:33;946.4;;;30.1;49.4
40013;BME280;37387;42.672;23.334;2022-07-29T06:01:33;946.5;;;30.9;46.5
40013;BME280;37387;42.672;23.334;2022-07-29T06:02:33;946.5;;;31.3;44.0
40013;BME280;37387;42.672;23.334;2022-07-29T06:03:33;946.5;;;31.7;44.0
40013;BME280;37387;42.672;23.334;2022-07-29T06:04:33;946.6;;;32.0;43.5
40013;BME280;37387;42.672;23.334;2022-07-29T06:05:33;946.5;;;31.4;42.7
40013;BME280;37387;42.672;23.334;2022-07-29T06:06:34;946.5;;;30.6;45.2
40013;BME280;37387;42.672;23.334;2022-07-29T06:07:33;946.5;;;30.8;45.3
40013;BME280;37387;42.672;23.334;2022-07-29T06:08:33;946.6;;;31.8;43.5
40013;BME280;37387;42.672;23.334;2022-07-29T06:09:34;946.5;;;32.0;42.7
40013;BME280;37387;42.672;23.334;2022-07-29T06:10:34;946.5;;;32.2;42.7
40013;BME280;37387;42.672;23.334;2022-07-29T06:11:34;946.6;;;31.9;42.5
40013;BME280;37387;42.672;23.334;2022-07-29T06:12:33;946.6;;;32.3;42.6
40013;BME280;37387;42.672;23.334;2022-07-29T06:13:33;946.6;;;32.9;41.9
40013;BME280;37387;42.672;23.334;2022-07-29T06:14:33;946.6;;;31.6;41.0
40013;BME280;37387;42.672;23.334;2022-07-29T06:15:33;946.5;;;29.0;48.1
40013;BME280;37387;42.672;23.334;2022-07-29T06:16:33;946.5;;;30.9;48.1
40013;BME280;37387;42.672;23.334;2022-07-29T06:17:33;946.6;;;31.9;45.1
40013;BME280;37387;42.672;23.334;2022-07-29T06:18:33;946.5;;;31.3;42.8
40013;BME280;37387;42.672;23.334;2022-07-29T06:19:34;946.6;;;31.7;43.6
40013;BME280;37387;42.672;23.334;2022-07-29T06:20:33;946.6;;;31.4;42.8
40013;BME280;37387;42.672;23.334;2022-07-29T06:21:33;946.6;;;29.8;43.2
40013;BME280;37387;42.672;23.334;2022-07-29T06:22:34;946.5;;;30.2;46.3
40013;BME280;37387;42.672;23.334;2022-07-29T06:23:33;946.6;;;31.2;46.0
40013;BME280;37387;42.672;23.334;2022-07-29T06:24:33;946.6;;;30.3;44.0
40013;BME280;37387;42.672;23.334;2022-07-29T06:25:33;946.5;;;31.1;45.5
40013;BME280;37387;42.672;23.334;2022-07-29T06:26:33;946.5;;;30.5;44.2
40013;BME280;37387;42.672;23.334;2022-07-29T06:27:33;946.5;;;30.6;45.1
40013;BME280;37387;42.672;23.334;2022-07-29T06:28:33;946.5;;;30.1;45.8
40013;BME280;37387;42.672;23.334;2022-07-29T06:29:33;946.5;;;31.0;45.8
40013;BME280;37387;42.672;23.334;2022-07-29T06:30:33;946.5;;;31.7;45.2
40013;BME280;37387;42.672;23.334;2022-07-29T06:31:34;946.6;;;32.6;43.4
40013;BME280;37387;42.672;23.334;2022-07-29T06:32:33;946.6;;;32.5;41.7
40013;BME280;37387;42.672;23.334;2022-07-29T06:33:33;946.5;;;31.8;41.9
40013;BME280;37387;42.672;23.334;2022-07-29T06:34:33;946.5;;;29.8;46.8
40013;BME280;37387;42.672;23.334;2022-07-29T06:35:34;946.5;;;29.9;46.8
40013;BME280;37387;42.672;23.334;2022-07-29T06:36:34;946.5;;;30.6;47.4
40013;BME280;37387;42.672;23.334;2022-07-29T06:37:33;946.5;;;30.9;44.4
40013;BME280;37387;42.672;23.334;2022-07-29T06:38:33;946.4;;;30.5;44.4
40013;BME280;37387;42.672;23.334;2022-07-29T06:39:34;946.4;;;29.8;47.0
40013;BME280;37387;42.672;23.334;2022-07-29T06:40:33;946.4;;;30.8;47.0
40013;BME280;37387;42.672;23.334;2022-07-29T06:41:33;946.5;;;31.5;43.7
40013;BME280;37387;42.672;23.334;2022-07-29T06:42:33;946.5;;;29.9;43.7
40013;BME280;37387;42.672;23.334;2022-07-29T06:43:35;946.4;;;29.0;46.9
40013;BME280;37387;42.672;23.334;2022-07-29T06:44:33;946.3;;;28.6;49.8
40013;BME280;37387;42.672;23.334;2022-07-29T06:45:34;946.3;;;29.1;49.8
40013;BME280;37387;42.672;23.334;2022-07-29T06:46:33;946.3;;;29.3;48.1
40013;BME280;37387;42.672;23.334;2022-07-29T06:47:33;946.3;;;29.6;48.6
40013;BME280;37387;42.672;23.334;2022-07-29T06:48:34;946.4;;;30.0;48.4
40013;BME280;37387;42.672;23.334;2022-07-29T06:49:33;946.3;;;29.6;47.0
40013;BME280;37387;42.672;23.334;2022-07-29T06:50:33;946.3;;;29.9;47.3
40013;BME280;37387;42.672;23.334;2022-07-29T06:51:33;946.3;;;29.3;47.8
40013;BME280;37387;42.672;23.334;2022-07-29T06:52:33;946.3;;;29.7;47.8
40013;BME280;37387;42.672;23.334;2022-07-29T06:53:34;946.4;;;30.4;47.6
40013;BME280;37387;42.672;23.334;2022-07-29T06:54:33;946.4;;;30.7;45.7
40013;BME280;37387;42.672;23.334;2022-07-29T06:56:34;946.4;;;30.8;46.1
40013;BME280;37387;42.672;23.334;2022-07-29T06:57:33;946.5;;;31.3;45.3
40013;BME280;37387;42.672;23.334;2022-07-29T06:58:34;946.5;;;31.5;44.2
40013;BME280;37387;42.672;23.334;2022-07-29T06:59:33;946.4;;;32.1;44.2
40013;BME280;37387;42.672;23.334;2022-07-29T07:00:33;946.4;;;31.9;43.1
40013;BME280;37387;42.672;23.334;2022-07-29T07:01:34;946.4;;;32.0;43.1
40013;BME280;37387;42.672;23.334;2022-07-29T07:02:33;946.4;;;33.0;42.7
40013;BME280;37387;42.672;23.334;2022-07-29T07:03:33;946.4;;;32.6;41.0
40013;BME280;37387;42.672;23.334;2022-07-29T07:04:33;946.4;;;32.2;42.0
40013;BME280;37387;42.672;23.334;2022-07-29T07:05:33;946.4;;;31.0;42.5
40013;BME280;37387;42.672;23.334;2022-07-29T07:06:33;946.3;;;31.8;44.8
40013;BME280;37387;42.672;23.334;2022-07-29T07:08:33;946.3;;;32.1;42.6
40013;BME280;37387;42.672;23.334;2022-07-29T07:09:33;946.4;;;31.3;43.4
40013;BME280;37387;42.672;23.334;2022-07-29T07:10:34;946.3;;;30.9;45.2
40013;BME280;37387;42.672;23.334;2022-07-29T07:11:34;946.3;;;30.8;45.2
40013;BME280;37387;42.672;23.334;2022-07-29T07:12:33;946.3;;;31.0;44.1
40013;BME280;37387;42.672;23.334;2022-07-29T07:13:33;946.3;;;31.4;44.1
40013;BME280;37387;42.672;23.334;2022-07-29T07:14:33;946.3;;;31.1;44.0
40013;BME280;37387;42.672;23.334;2022-07-29T07:15:35;946.3;;;31.5;44.7
40013;BME280;37387;42.672;23.334;2022-07-29T07:16:33;946.4;;;31.4;43.8
40013;BME280;37387;42.672;23.334;2022-07-29T07:17:33;946.3;;;30.8;43.8
40013;BME280;37387;42.672;23.334;2022-07-29T07:18:33;946.3;;;31.7;45.3
40013;BME280;37387;42.672;23.334;2022-07-29T07:19:33;946.3;;;31.0;44.7
40013;BME280;37387;42.672;23.334;2022-07-29T07:20:34;946.3;;;31.8;44.7
40013;BME280;37387;42.672;23.334;2022-07-29T07:21:33;946.3;;;31.7;42.9
40013;BME280;37387;42.672;23.334;2022-07-29T07:22:33;946.3;;;30.9;43.0
40013;BME280;37387;42.672;23.334;2022-07-29T07:23:33;946.4;;;31.1;44.1
40013;BME280;37387;42.672;23.334;2022-07-29T07:24:34;946.3;;;30.1;45.6
40013;BME280;37387;42.672;23.334;2022-07-29T07:25:34;946.3;;;30.2;45.6
40013;BME280;37387;42.672;23.334;2022-07-29T07:26:33;946.3;;;29.8;46.0
40013;BME280;37387;42.672;23.334;2022-07-29T07:27:33;946.3;;;28.8;46.6
40013;BME280;37387;42.672;23.334;2022-07-29T07:28:33;946.1;;;28.9;48.7
40013;BME280;37387;42.672;23.334;2022-07-29T07:30:34;946.1;;;28.5;48.4
40013;BME280;37387;42.672;23.334;2022-07-29T07:31:34;946.1;;;29.5;49.0
40013;BME280;37387;42.672;23.334;2022-07-29T07:32:34;946.1;;;31.0;47.4
40013;BME280;37387;42.672;23.334;2022-07-29T07:33:33;946.2;;;30.9;44.0
40013;BME280;37387;42.672;23.334;2022-07-29T07:34:33;946.2;;;30.6;44.7
40013;BME280;37387;42.672;23.334;2022-07-29T07:35:34;946.2;;;31.2;44.7
40013;BME280;37387;42.672;23.334;2022-07-29T07:36:33;946.2;;;32.1;44.0
40013;BME280;37387;42.672;23.334;2022-07-29T07:37:34;946.2;;;31.3;42.2
40013;BME280;37387;42.672;23.334;2022-07-29T07:38:34;946.2;;;30.3;42.5
40013;BME280;37387;42.672;23.334;2022-07-29T07:39:33;946.2;;;31.2;44.9
40013;BME280;37387;42.672;23.334;2022-07-29T07:41:33;946.2;;;31.1;43.1
40013;BME280;37387;42.672;23.334;2022-07-29T07:42:33;946.2;;;30.8;43.1
40013;BME280;37387;42.672;23.334;2022-07-29T07:43:34;946.2;;;30.7;43.1
40013;BME280;37387;42.672;23.334;2022-07-29T07:44:33;946.2;;;31.0;43.8
40013;BME280;37387;42.672;23.334;2022-07-29T07:45:33;946.2;;;30.6;43.5
40013;BME280;37387;42.672;23.334;2022-07-29T07:46:33;946.2;;;30.4;44.1
40013;BME280;37387;42.672;23.334;2022-07-29T07:47:33;946.2;;;31.1;44.6
40013;BME280;37387;42.672;23.334;2022-07-29T07:48:34;946.2;;;31.3;43.2
40013;BME280;37387;42.672;23.334;2022-07-29T07:49:34;946.3;;;30.5;42.5
40013;BME280;37387;42.672;23.334;2022-07-29T07:50:34;946.2;;;31.4;44.7
40013;BME280;37387;42.672;23.334;2022-07-29T07:51:34;946.3;;;31.0;43.1
40013;BME280;37387;42.672;23.334;2022-07-29T07:52:33;946.2;;;30.7;43.1
40013;BME280;37387;42.672;23.334;2022-07-29T07:53:34;946.2;;;30.2;44.2
40013;BME280;37387;42.672;23.334;2022-07-29T07:54:33;946.2;;;31.1;45.3
40013;BME280;37387;42.672;23.334;2022-07-29T07:55:38;946.2;;;31.9;43.7
40013;BME280;37387;42.672;23.334;2022-07-29T07:56:34;946.2;;;32.3;41.3
40013;BME280;37387;42.672;23.334;2022-07-29T07:57:33;946.2;;;32.6;41.3
40013;BME280;37387;42.672;23.334;2022-07-29T07:58:33;946.2;;;32.4;40.3
40013;BME280;37387;42.672;23.334;2022-07-29T07:59:34;946.2;;;31.6;40.4
40013;BME280;37387;42.672;23.334;2022-07-29T08:00:33;946.2;;;30.5;41.3
40013;BME280;37387;42.672;23.334;2022-07-29T08:01:33;946.2;;;29.9;43.8
40013;BME280;37387;42.672;23.334;2022-07-29T08:02:33;946.2;;;30.2;45.2
40013;BME280;37387;42.672;23.334;2022-07-29T08:03:34;946.2;;;29.9;45.1
40013;BME280;37387;42.672;23.334;2022-07-29T08:04:34;946.1;;;30.0;45.1
40013;BME280;37387;42.672;23.334;2022-07-29T08:05:34;946.2;;;30.9;45.1
40013;BME280;37387;42.672;23.334;2022-07-29T08:06:34;946.2;;;31.8;43.5
40013;BME280;37387;42.672;23.334;2022-07-29T08:07:33;946.1;;;32.0;42.1
40013;BME280;37387;42.672;23.334;2022-07-29T08:08:34;946.2;;;30.3;41.1
40013;BME280;37387;42.672;23.334;2022-07-29T08:09:34;946.1;;;29.9;44.7
40013;BME280;37387;42.672;23.334;2022-07-29T08:10:34;946.1;;;30.5;45.3
40013;BME280;37387;42.672;23.334;2022-07-29T08:11:33;946.1;;;29.8;43.8
40013;BME280;37387;42.672;23.334;2022-07-29T08:12:33;946.1;;;30.3;45.6
40013;BME280;37387;42.672;23.334;2022-07-29T08:14:34;946.1;;;30.1;45.1
40013;BME280;37387;42.672;23.334;2022-07-29T08:15:34;946.1;;;31.1;43.5
40013;BME280;37387;42.672;23.334;2022-07-29T08:16:34;946.1;;;31.3;43.5
40013;BME280;37387;42.672;23.334;2022-07-29T08:17:34;946.2;;;31.1;42.7
40013;BME280;37387;42.672;23.334;2022-07-29T08:18:34;946.1;;;30.6;43.0
40013;BME280;37387;42.672;23.334;2022-07-29T08:19:34;946.1;;;30.5;43.0
40013;BME280;37387;42.672;23.334;2022-07-29T08:20:34;946.1;;;30.8;42.9
40013;BME280;37387;42.672;23.334;2022-07-29T08:21:33;946.1;;;31.4;42.9
40013;BME280;37387;42.672;23.334;2022-07-29T08:23:34;946.2;;;32.0;41.8